Time;durP1;ratioP1;P1;durP2;ratioP2;P2;SDS_P1;SDS_P2;PMS_P1;PMS_P2;Temp;Humidity;BMP_temperature;BMP_pressure;BME280_temperature;BME280_humidity;BME280_pressure;Samples;Min_cycle;Max_cycle;Signal;HPM_P1;HPM_P2
2022/02/27 00:00:05;;;;;;;229.18;114.05;;;;;;;3.00;62.92;101962.16;5044163;28;20127;-73
2022/02/27 00:02:32;;;;;;;259.25;125.45;;;;;;;3.12;62.37;101962.00;5044870;28;20136;-74
2022/02/27 00:04:59;;;;;;;275.70;131.23;;;;;;;3.15;62.01;101961.97;5044945;28;20068;-73
2022/02/27 00:07:27;;;;;;;284.38;137.63;;;;;;;3.19;61.69;101970.59;5046383;28;20059;-74
2022/02/27 00:09:54;;;;;;;278.05;132.40;;;;;;;3.14;61.57;101972.41;5043840;28;20055;-73
2022/02/27 00:12:21;;;;;;;287.95;141.15;;;;;;;3.12;61.33;101975.03;5042501;28;20053;-74
2022/02/27 00:14:48;;;;;;;289.60;137.63;;;;;;;3.06;61.13;101969.88;5045573;28;20080;-74
2022/02/27 00:17:16;;;;;;;284.83;138.93;;;;;;;2.96;61.15;101969.16;5045488;28;20045;-75
2022/02/27 00:19:43;;;;;;;265.33;131.13;;;;;;;2.92;60.94;101969.22;5044169;28;20052;-73
2022/02/27 00:22:10;;;;;;;291.90;146.80;;;;;;;2.84;60.77;101964.94;5044800;28;20516;-73
2022/02/27 00:24:37;;;;;;;273.52;138.93;;;;;;;2.81;60.72;101967.63;5044158;28;20105;-74
2022/02/27 00:27:05;;;;;;;277.05;146.75;;;;;;;2.78;60.61;101964.19;5043729;28;20053;-72
2022/02/27 00:29:32;;;;;;;284.25;134.07;;;;;;;2.75;60.46;101965.06;5007885;28;20110;-73
2022/02/27 00:31:59;;;;;;;267.27;134.32;;;;;;;2.71;60.56;101963.38;5044711;28;20542;-74
2022/02/27 00:34:27;;;;;;;295.77;137.68;;;;;;;2.64;60.59;101964.34;5046098;28;20128;-72
2022/02/27 00:36:54;;;;;;;279.85;143.13;;;;;;;2.57;60.75;101968.75;5045053;28;20048;-73
2022/02/27 00:39:22;;;;;;;276.92;136.60;;;;;;;2.53;60.78;101971.44;5043758;28;20049;-73
2022/02/27 00:41:49;;;;;;;305.63;147.32;;;;;;;2.53;60.62;101974.91;5042393;28;20091;-74
2022/02/27 00:44:16;;;;;;;313.00;156.43;;;;;;;2.60;60.71;101978.31;5046272;28;20169;-73
2022/02/27 00:46:43;;;;;;;308.58;165.75;;;;;;;2.56;60.45;101976.63;5044396;28;20052;-73
2022/02/27 00:49:10;;;;;;;258.25;144.00;;;;;;;2.59;60.88;101981.78;5045195;28;20075;-71
2022/02/27 00:51:38;;;;;;;274.92;150.70;;;;;;;2.68;60.97;101979.06;5044812;28;20555;-72
2022/02/27 00:54:07;;;;;;;284.55;159.52;;;;;;;2.76;60.94;101982.47;5044150;28;20060;-72
2022/02/27 00:56:34;;;;;;;208.95;121.90;;;;;;;2.89;61.42;101982.31;5045943;28;20481;-72
2022/02/27 00:59:03;;;;;;;223.10;119.20;;;;;;;3.00;61.56;101980.44;5045761;28;20102;-72
2022/02/27 01:01:30;;;;;;;223.43;120.82;;;;;;;3.06;61.55;101970.78;5062410;28;20067;-73
2022/02/27 01:03:57;;;;;;;184.27;102.75;;;;;;;3.12;61.80;101964.59;5060364;28;20099;-72
2022/02/27 01:06:24;;;;;;;181.73;102.78;;;;;;;3.20;61.98;101965.34;5062007;28;20084;-74
2022/02/27 01:08:54;;;;;;;181.95;96.28;;;;;;;3.31;61.75;101973.00;5063064;28;20056;-73
2022/02/27 01:11:21;;;;;;;217.70;109.38;;;;;;;3.40;61.71;101975.53;5063655;28;20045;-73
2022/02/27 01:13:48;;;;;;;239.90;118.07;;;;;;;3.49;61.25;101966.66;5061052;28;20080;-73
2022/02/27 01:16:15;;;;;;;229.73;114.00;;;;;;;3.50;61.01;101976.22;5047714;28;20132;-72
2022/02/27 01:18:42;;;;;;;212.70;105.50;;;;;;;3.53;60.66;101973.56;5044884;28;20049;-72
2022/02/27 01:21:09;;;;;;;206.95;106.75;;;;;;;3.54;60.74;101966.59;5043676;28;20132;-74
2022/02/27 01:23:36;;;;;;;243.02;116.80;;;;;;;3.52;60.46;101964.00;5047798;28;20581;-73
2022/02/27 01:26:06;;;;;;;222.82;109.97;;;;;;;3.48;60.59;101969.31;5048039;28;20136;-73
2022/02/27 01:28:33;;;;;;;230.43;113.75;;;;;;;3.50;60.36;101963.16;5049833;28;20575;-71
2022/02/27 01:31:00;;;;;;;221.10;110.82;;;;;;;3.51;60.16;101972.75;5050176;28;20492;-72
2022/02/27 01:33:27;;;;;;;212.63;109.32;;;;;;;3.51;60.08;101967.53;5049442;28;20051;-72
2022/02/27 01:35:54;;;;;;;214.73;110.15;;;;;;;3.51;60.03;101966.63;5048625;28;20081;-71
2022/02/27 01:38:22;;;;;;;243.52;123.25;;;;;;;3.55;59.87;101971.81;5049321;28;20053;-74
2022/02/27 01:40:48;;;;;;;263.80;131.05;;;;;;;3.56;59.77;101970.03;5049704;28;20041;-73
2022/02/27 01:43:17;;;;;;;229.15;119.88;;;;;;;3.55;59.70;101963.97;5048151;28;20045;-73
2022/02/27 01:45:44;;;;;;;218.00;112.55;;;;;;;3.59;59.88;101964.78;5048617;28;20166;-73
2022/02/27 01:48:11;;;;;;;238.43;120.65;;;;;;;3.60;59.82;101964.75;5049561;28;20559;-73
2022/02/27 01:50:39;;;;;;;238.82;126.75;;;;;;;3.60;59.63;101961.25;5047768;28;20132;-72
2022/02/27 01:53:06;;;;;;;235.00;117.97;;;;;;;3.58;59.55;101963.03;5048147;28;20157;-72
2022/02/27 01:55:33;;;;;;;214.55;108.38;;;;;;;3.62;59.75;101965.59;5048410;28;20523;-73
2022/02/27 01:58:01;;;;;;;208.45;108.60;;;;;;;3.67;59.43;101956.81;5048020;28;20051;-74
2022/02/27 02:00:29;;;;;;;215.85;109.47;;;;;;;3.66;59.67;101961.19;5048592;28;20041;-74
2022/02/27 02:02:56;;;;;;;202.30;105.82;;;;;;;3.68;59.46;101955.94;5046043;28;20055;-74
2022/02/27 02:05:23;;;;;;;202.15;108.30;;;;;;;3.71;59.40;101963.69;5047510;28;20063;-73
2022/02/27 02:07:50;;;;;;;207.02;108.53;;;;;;;3.72;59.42;101961.06;5046963;28;20053;-73
2022/02/27 02:10:17;;;;;;;222.40;112.72;;;;;;;3.70;59.27;101957.63;5047904;28;20102;-73
2022/02/27 02:12:44;;;;;;;227.32;118.78;;;;;;;3.62;59.60;101960.38;5046006;28;20055;-72
2022/02/27 02:15:12;;;;;;;218.70;125.70;;;;;;;3.54;59.56;101962.22;5048566;28;20654;-72
2022/02/27 02:17:40;;;;;;;213.52;112.47;;;;;;;3.47;59.88;101951.91;5047011;28;20068;-74
2022/02/27 02:20:10;;;;;;;182.55;98.55;;;;;;;3.48;60.00;101951.03;5047495;28;20051;-72
2022/02/27 02:22:37;;;;;;;182.88;101.55;;;;;;;3.47;60.17;101957.13;5046995;28;20136;-72
2022/02/27 02:25:06;;;;;;;168.70;97.60;;;;;;;3.36;60.57;101952.06;5047362;28;20048;-73
2022/02/27 02:27:33;;;;;;;185.10;103.35;;;;;;;3.30;60.73;101954.78;5047305;28;20424;-73
2022/02/27 02:30:01;;;;;;;165.95;94.60;;;;;;;3.24;61.06;101956.59;5048492;28;20119;-73
2022/02/27 02:32:28;;;;;;;180.68;103.38;;;;;;;3.21;61.22;101958.38;5046767;28;20056;-73
2022/02/27 02:34:55;;;;;;;206.10;112.75;;;;;;;3.20;61.21;101957.50;5048180;28;20045;-72
2022/02/27 02:37:23;;;;;;;167.13;99.68;;;;;;;3.17;61.36;101961.91;5047083;28;20053;-73
2022/02/27 02:39:53;;;;;;;147.75;88.40;;;;;;;3.20;61.97;101960.13;5047238;28;20485;-75
2022/02/27 02:42:20;;;;;;;145.30;86.47;;;;;;;3.24;62.31;101953.97;5046055;28;20191;-72
2022/02/27 02:44:47;;;;;;;149.60;86.05;;;;;;;3.29;62.25;101960.88;5048080;28;20049;-73
2022/02/27 02:47:15;;;;;;;131.25;75.43;;;;;;;3.29;62.05;101964.34;5046555;28;20079;-70
2022/02/27 02:49:42;;;;;;;123.65;66.93;;;;;;;3.29;62.19;101966.09;5047262;28;20049;-70
2022/02/27 02:52:09;;;;;;;102.20;55.63;;;;;;;3.35;62.68;101971.22;5047398;28;20617;-73
2022/02/27 02:54:37;;;;;;;105.88;58.10;;;;;;;3.37;62.74;101967.72;5045841;28;20057;-72
2022/02/27 02:57:05;;;;;;;92.72;54.72;;;;;;;3.41;62.78;101965.91;5047274;28;20124;-72
2022/02/27 02:59:32;;;;;;;68.40;40.10;;;;;;;3.42;63.08;101973.75;5047478;28;20055;-73
2022/02/27 03:01:59;;;;;;;69.50;44.10;;;;;;;3.46;63.40;101961.50;5047050;28;20084;-73
2022/02/27 03:04:26;;;;;;;62.95;37.42;;;;;;;3.55;63.30;101971.81;5046400;28;20077;-72
2022/02/27 03:06:53;;;;;;;69.90;35.90;;;;;;;3.60;63.22;101974.31;5046371;28;20149;-72
2022/02/27 03:09:20;;;;;;;71.22;38.22;;;;;;;3.60;63.23;101967.38;5046647;28;20120;-73
2022/02/27 03:11:48;;;;;;;53.10;34.30;;;;;;;3.61;63.06;101969.06;5045753;28;20136;-72
2022/02/27 03:14:15;;;;;;;67.15;39.92;;;;;;;3.66;63.25;101973.38;5046692;28;20405;-74
2022/02/27 03:16:42;;;;;;;75.63;46.38;;;;;;;3.65;62.94;101980.34;5046508;28;20077;-73
2022/02/27 03:19:09;;;;;;;77.20;45.03;;;;;;;3.66;62.92;101991.69;5046419;28;20075;-73
2022/02/27 03:21:36;;;;;;;76.70;43.10;;;;;;;3.64;62.72;101982.09;5046875;28;20068;-74
2022/02/27 03:24:03;;;;;;;79.18;42.38;;;;;;;3.69;62.66;101982.03;5046254;28;20429;-73
2022/02/27 03:26:30;;;;;;;75.25;40.45;;;;;;;3.69;62.76;101989.00;5047355;28;20052;-73
2022/02/27 03:28:59;;;;;;;59.78;37.75;;;;;;;3.62;63.38;101990.88;5046820;28;20056;-73
2022/02/27 03:31:26;;;;;;;49.00;32.72;;;;;;;3.63;63.41;101992.56;5046218;28;20041;-74
2022/02/27 03:33:53;;;;;;;43.97;26.77;;;;;;;3.64;63.46;101991.69;5046720;28;20063;-73
2022/02/27 03:36:20;;;;;;;47.58;24.17;;;;;;;3.69;63.14;101992.50;5046491;28;20055;-73
2022/02/27 03:38:47;;;;;;;43.88;23.98;;;;;;;3.70;63.00;101998.56;5047053;28;20057;-73
2022/02/27 03:41:14;;;;;;;40.78;23.70;;;;;;;3.72;62.92;101997.66;5047038;28;20060;-72
2022/02/27 03:43:41;;;;;;;36.10;20.90;;;;;;;3.69;63.06;102002.06;5043528;28;20063;-74
2022/02/27 03:46:10;;;;;;;50.35;25.55;;;;;;;3.65;63.18;102003.84;5046371;28;20055;-73
2022/02/27 03:48:37;;;;;;;35.75;21.92;;;;;;;3.68;62.95;102013.41;5047130;28;20051;-74
2022/02/27 03:51:04;;;;;;;31.25;20.40;;;;;;;3.69;63.10;102017.75;5045927;28;20048;-74
2022/02/27 03:53:31;;;;;;;35.40;20.80;;;;;;;3.64;63.31;102010.84;5045936;28;20055;-73
2022/02/27 03:55:58;;;;;;;34.13;21.42;;;;;;;3.62;63.38;102017.84;5045733;28;20131;-73
2022/02/27 03:58:25;;;;;;;32.08;19.38;;;;;;;3.66;63.28;102023.03;5045497;28;20045;-73
2022/02/27 04:00:52;;;;;;;29.95;18.10;;;;;;;3.66;63.36;102020.44;5045861;28;20045;-73
2022/02/27 04:03:20;;;;;;;30.08;17.90;;;;;;;3.63;63.41;102019.56;5046862;28;20503;-73
2022/02/27 04:05:48;;;;;;;29.67;16.60;;;;;;;3.64;63.22;102015.22;5045451;28;20056;-73
2022/02/27 04:08:15;;;;;;;32.22;17.92;;;;;;;3.66;63.30;102020.44;5046130;28;20049;-73
2022/02/27 04:10:42;;;;;;;31.00;15.30;;;;;;;3.74;62.94;102021.16;5046001;28;20048;-72
2022/02/27 04:13:09;;;;;;;30.33;15.70;;;;;;;3.74;62.91;102011.56;5043583;28;20053;-72
2022/02/27 04:15:37;;;;;;;26.70;15.30;;;;;;;3.71;63.15;102010.75;5045020;28;20488;-72
2022/02/27 04:18:04;;;;;;;32.00;16.52;;;;;;;3.71;63.22;102010.75;5045657;28;20048;-73
2022/02/27 04:20:32;;;;;;;29.23;16.10;;;;;;;3.73;63.18;102019.44;5046346;28;20159;-72
2022/02/27 04:22:59;;;;;;;25.58;15.38;;;;;;;3.68;63.35;102018.66;5046320;28;20045;-72
2022/02/27 04:25:26;;;;;;;25.95;18.17;;;;;;;3.68;63.31;102016.88;5046501;28;20501;-73
2022/02/27 04:27:55;;;;;;;29.13;19.30;;;;;;;3.59;63.91;102014.41;5045849;28;20144;-73
2022/02/27 04:30:22;;;;;;;25.40;15.20;;;;;;;3.54;63.97;102017.09;5047511;28;20076;-73
2022/02/27 04:32:50;;;;;;;26.38;17.83;;;;;;;3.55;63.80;102011.00;5046704;28;20109;-74
2022/02/27 04:35:17;;;;;;;28.20;17.25;;;;;;;3.49;64.25;102021.50;5046637;28;20045;-74
2022/02/27 04:37:46;;;;;;;30.38;16.83;;;;;;;3.52;64.07;102018.88;5047134;28;20145;-72
2022/02/27 04:40:13;;;;;;;28.08;18.23;;;;;;;3.51;64.09;102016.28;5046396;28;20091;-72
2022/02/27 04:42:41;;;;;;;28.08;16.77;;;;;;;3.45;64.23;102020.69;5044732;28;20535;-71
2022/02/27 04:45:09;;;;;;;27.48;15.30;;;;;;;3.50;64.25;102017.16;5046364;28;20045;-75
2022/02/27 04:47:37;;;;;;;30.52;15.38;;;;;;;3.52;64.18;102026.69;5045755;28;20052;-72
2022/02/27 04:50:04;;;;;;;36.53;17.05;;;;;;;3.49;64.19;102012.81;5045552;28;20045;-71
2022/02/27 04:52:31;;;;;;;26.40;16.02;;;;;;;3.48;64.28;102013.72;5046998;28;20124;-71
2022/02/27 04:54:59;;;;;;;30.75;18.23;;;;;;;3.49;64.27;102016.28;5045587;28;20093;-72
2022/02/27 04:57:26;;;;;;;26.67;16.63;;;;;;;3.56;64.08;102017.06;5048595;28;20364;-72
2022/02/27 04:59:53;;;;;;;35.78;20.65;;;;;;;3.60;63.97;102021.34;5050139;28;20045;-72
2022/02/27 05:02:20;;;;;;;30.65;17.20;;;;;;;3.62;63.65;102030.91;5049667;28;20045;-75
2022/02/27 05:04:47;;;;;;;33.35;17.20;;;;;;;3.64;63.79;102031.75;5050278;28;20047;-72
2022/02/27 05:07:14;;;;;;;31.42;20.05;;;;;;;3.59;63.66;102024.88;5050480;28;20436;-72
2022/02/27 05:09:41;;;;;;;33.40;16.88;;;;;;;3.61;63.78;102025.72;5049870;28;20049;-74
2022/02/27 05:12:10;;;;;;;30.30;17.13;;;;;;;3.67;63.71;102029.97;5047477;28;20047;-72
2022/02/27 05:14:37;;;;;;;30.85;17.27;;;;;;;3.70;63.53;102030.78;5049717;28;20051;-73
2022/02/27 05:17:04;;;;;;;20.77;11.23;;;;;;;3.82;63.39;102034.97;5049854;28;20128;-72
2022/02/27 05:19:31;;;;;;;23.20;10.35;;;;;;;3.94;62.92;102033.91;5049385;28;20495;-73
2022/02/27 05:21:58;;;;;;;24.63;10.85;;;;;;;4.00;62.66;102039.91;5050445;28;20045;-72
2022/02/27 05:24:25;;;;;;;26.17;10.30;;;;;;;4.03;62.55;102038.97;5049542;28;20051;-75
2022/02/27 05:26:52;;;;;;;25.27;9.20;;;;;;;4.02;62.56;102045.97;5048693;28;20141;-72
2022/02/27 05:29:20;;;;;;;21.90;9.50;;;;;;;4.00;62.66;102047.75;5049056;28;20045;-72
2022/02/27 05:31:47;;;;;;;17.98;8.70;;;;;;;3.96;62.54;102056.53;5048795;28;20128;-74
2022/02/27 05:34:14;;;;;;;19.13;8.43;;;;;;;3.91;62.46;102052.28;5049197;28;20503;-74
2022/02/27 05:36:41;;;;;;;17.27;8.73;;;;;;;3.87;62.46;102055.78;5049728;28;20076;-72
2022/02/27 05:39:08;;;;;;;17.35;9.13;;;;;;;3.90;62.44;102054.00;5048556;28;20095;-72
2022/02/27 05:41:36;;;;;;;27.25;17.30;;;;;;;3.87;62.31;102056.69;5047822;28;20055;-72
2022/02/27 05:44:03;;;;;;;16.75;9.98;;;;;;;3.87;62.41;102053.19;5048861;28;20083;-74
2022/02/27 05:46:32;;;;;;;21.15;9.15;;;;;;;3.85;62.08;102049.72;5048302;28;20045;-74
2022/02/27 05:48:59;;;;;;;19.60;9.40;;;;;;;3.85;62.32;102054.97;5048393;28;20055;-72
2022/02/27 05:51:26;;;;;;;21.48;9.85;;;;;;;3.91;62.13;102055.75;5049010;28;20511;-75
2022/02/27 05:53:53;;;;;;;19.30;9.43;;;;;;;3.94;61.94;102055.69;5048591;28;20600;-71
2022/02/27 05:56:20;;;;;;;22.63;9.90;;;;;;;3.92;61.92;102059.22;5037974;28;20045;-76
2022/02/27 05:58:47;;;;;;;25.00;10.40;;;;;;;3.95;61.83;102056.56;5049163;28;20055;-71
2022/02/27 06:01:14;;;;;;;31.95;15.40;;;;;;;3.90;61.84;102064.44;5049192;28;20124;-71
2022/02/27 06:03:42;;;;;;;40.75;20.77;;;;;;;3.76;62.24;102063.81;5049430;28;20137;-74
2022/02/27 06:06:09;;;;;;;29.05;13.77;;;;;;;3.72;62.51;102062.13;5047998;28;20087;-69
2022/02/27 06:08:36;;;;;;;33.95;16.85;;;;;;;3.73;62.65;102066.47;5046463;28;20049;-70
2022/02/27 06:11:03;;;;;;;34.00;18.45;;;;;;;3.68;62.76;102063.94;5034388;28;20049;-72
2022/02/27 06:13:31;;;;;;;42.85;20.90;;;;;;;3.54;63.40;102069.34;5025699;28;20132;-75
2022/02/27 06:15:58;;;;;;;38.90;22.33;;;;;;;3.47;63.51;102072.06;5028192;28;20053;-71
2022/02/27 06:18:25;;;;;;;41.60;22.05;;;;;;;3.42;63.75;102073.00;5028010;28;20141;-74
2022/02/27 06:20:54;;;;;;;43.35;23.77;;;;;;;3.37;63.82;102080.03;5027367;28;20056;-75
2022/02/27 06:23:21;;;;;;;40.17;20.52;;;;;;;3.44;63.90;102073.00;5028038;28;20478;-74
2022/02/27 06:25:48;;;;;;;45.67;22.77;;;;;;;3.44;63.97;102071.22;5028169;28;20045;-74
2022/02/27 06:28:15;;;;;;;36.42;21.88;;;;;;;3.54;63.63;102074.56;5027645;28;20053;-76
2022/02/27 06:30:42;;;;;;;42.42;25.98;;;;;;;3.64;63.53;102086.63;5027425;28;20519;-78
2022/02/27 06:33:09;;;;;;;57.58;35.17;;;;;;;3.62;63.76;102088.41;5027102;28;20076;-75
2022/02/27 06:35:36;;;;;;;52.42;34.10;;;;;;;3.50;64.06;102082.47;5026671;28;20055;-74
2022/02/27 06:38:05;;;;;;;55.90;30.42;;;;;;;3.40;64.36;102087.84;5027537;28;20137;-74
2022/02/27 06:40:32;;;;;;;57.65;38.15;;;;;;;3.45;64.08;102090.38;5034096;28;20107;-76
2022/02/27 06:43:04;;;;;;;56.20;30.85;;;;;;;3.41;64.67;102089.53;5045280;28;20061;-75
2022/02/27 06:45:31;;;;;;;59.67;28.52;;;;;;;3.34;64.74;102089.66;5047150;28;20186;-74
2022/02/27 06:47:58;;;;;;;76.00;29.98;;;;;;;3.25;65.03;102101.94;5046941;28;20132;-74
2022/02/27 06:50:26;;;;;;;75.85;31.55;;;;;;;3.25;65.08;102096.72;5045812;28;20049;-75
2022/02/27 06:52:53;;;;;;;63.50;30.38;;;;;;;3.35;64.88;102094.88;5043457;28;20157;-75
2022/02/27 06:55:22;;;;;;;48.67;27.67;;;;;;;3.42;64.57;102091.28;5045460;28;20122;-73
2022/02/27 06:57:50;;;;;;;80.60;32.00;;;;;;;3.34;64.96;102095.72;5044800;28;20136;-72
2022/02/27 07:00:19;;;;;;;56.97;28.60;;;;;;;3.36;64.92;102095.72;5045669;28;20673;-74
2022/02/27 07:02:47;;;;;;;78.95;37.10;;;;;;;3.40;64.93;102100.00;5045542;28;20120;-70
2022/02/27 07:05:14;;;;;;;102.03;35.85;;;;;;;3.35;65.00;102094.88;5045530;28;20041;-74
2022/02/27 07:07:41;;;;;;;63.25;36.47;;;;;;;3.41;65.12;102096.53;5044664;28;20500;-76
2022/02/27 07:10:08;;;;;;;81.93;36.42;;;;;;;3.32;65.00;102099.25;5043785;28;20734;-75
2022/02/27 07:12:38;;;;;;;69.43;36.80;;;;;;;3.19;65.14;102103.78;5044289;28;20041;-74
2022/02/27 07:15:07;;;;;;;75.32;35.33;;;;;;;3.12;65.12;102110.81;5045611;28;20063;-74
2022/02/27 07:17:34;;;;;;;102.25;35.22;;;;;;;3.05;65.32;102109.16;5044590;28;20120;-72
2022/02/27 07:20:01;;;;;;;91.63;36.55;;;;;;;3.06;65.27;102110.84;5044241;28;20051;-70
2022/02/27 07:22:28;;;;;;;78.05;31.23;;;;;;;3.18;65.16;102115.09;5045217;28;20082;-74
2022/02/27 07:24:55;;;;;;;80.45;41.42;;;;;;;3.35;64.68;102123.59;5044958;28;20143;-74
2022/02/27 07:27:23;;;;;;;115.95;54.53;;;;;;;3.47;64.53;102124.31;5045401;28;20044;-76
2022/02/27 07:29:51;;;;;;;105.78;50.03;;;;;;;3.47;64.42;102117.31;5047299;28;20711;-74
2022/02/27 07:32:18;;;;;;;94.40;41.95;;;;;;;3.44;64.39;102115.63;5046146;28;20063;-76
2022/02/27 07:34:45;;;;;;;114.72;39.50;;;;;;;3.29;64.57;102123.66;5045696;28;20045;-73
2022/02/27 07:37:14;;;;;;;97.18;38.95;;;;;;;3.19;64.70;102120.28;5045515;28;20064;-73
2022/02/27 07:39:42;;;;;;;85.78;39.65;;;;;;;3.18;64.90;102125.53;5046052;28;20049;-75
2022/02/27 07:42:10;;;;;;;106.40;40.42;;;;;;;3.12;64.88;102130.84;5027108;28;20041;-75
2022/02/27 07:44:42;;;;;;;94.95;37.10;;;;;;;3.14;65.02;102132.53;5046208;28;20055;-75
2022/02/27 07:47:11;;;;;;;124.20;45.10;;;;;;;3.11;65.12;102131.72;5043877;28;20057;-74
2022/02/27 07:49:39;;;;;;;84.10;42.85;;;;;;;3.26;64.91;102131.53;5007933;28;20626;-74
2022/02/27 07:52:07;;;;;;;69.43;34.72;;;;;;;3.40;64.57;102134.84;5023208;28;20152;-74
2022/02/27 07:54:34;;;;;;;54.55;21.27;;;;;;;3.62;64.12;102130.22;5023874;28;20055;-74
2022/02/27 07:57:01;;;;;;;82.18;34.05;;;;;;;3.63;64.03;102129.31;5022923;28;20045;-72
2022/02/27 07:59:29;;;;;;;67.32;20.65;;;;;;;3.82;63.88;102127.31;5023688;28;20128;-72
2022/02/27 08:01:56;;;;;;;59.72;23.05;;;;;;;4.10;63.26;102128.66;5023764;28;20056;-73
2022/02/27 08:04:24;;;;;;;90.25;42.85;;;;;;;4.19;63.05;102131.13;5022130;28;20049;-73
2022/02/27 08:06:51;;;;;;;59.28;29.40;;;;;;;4.08;62.98;102128.66;5039725;28;20123;-74
2022/02/27 08:09:19;;;;;;;80.28;44.70;;;;;;;4.09;63.12;102129.53;5042317;28;20428;-75
2022/02/27 08:11:46;;;;;;;81.93;38.78;;;;;;;3.93;63.11;102131.53;5045663;28;20072;-75
2022/02/27 08:14:13;;;;;;;63.42;30.08;;;;;;;3.87;63.04;102142.06;5044116;28;20471;-72
2022/02/27 08:16:40;;;;;;;103.75;34.08;;;;;;;3.83;63.13;102128.16;5043726;28;20128;-76
2022/02/27 08:19:07;;;;;;;98.50;38.03;;;;;;;3.79;63.01;102136.94;5044913;28;20399;-75
2022/02/27 08:21:36;;;;;;;103.30;31.98;;;;;;;3.81;63.12;102132.56;5042527;28;20049;-76
2022/02/27 08:24:03;;;;;;;55.25;27.77;;;;;;;3.93;62.76;102127.16;5041591;28;20120;-73
2022/02/27 08:26:30;;;;;;;89.90;34.28;;;;;;;3.90;62.74;102137.66;5041823;28;20608;-75
2022/02/27 08:28:57;;;;;;;48.45;24.27;;;;;;;3.95;62.45;102132.38;5039537;28;20041;-77
2022/02/27 08:31:24;;;;;;;65.00;31.17;;;;;;;4.03;62.67;102127.88;5031574;28;20706;-74
2022/02/27 08:33:51;;;;;;;45.53;17.33;;;;;;;4.25;62.31;102128.44;5022267;28;20148;-81
2022/02/27 08:36:18;;;;;;;42.05;18.42;;;;;;;4.45;62.02;102129.81;5022383;28;20045;-78
2022/02/27 08:38:47;;;;;;;43.85;17.27;;;;;;;4.73;61.51;102136.31;5021607;28;20132;-77
2022/02/27 08:41:15;;;;;;;57.65;28.00;;;;;;;4.88;60.87;102129.94;5022996;28;20601;-75
2022/02/27 08:43:43;;;;;;;98.32;30.98;;;;;;;4.54;60.89;102124.47;5035336;28;20055;-76
2022/02/27 08:46:10;;;;;;;62.38;29.05;;;;;;;4.36;61.31;102133.47;5043325;28;20132;-81
2022/02/27 08:48:38;;;;;;;64.45;29.13;;;;;;;4.34;61.23;102130.00;5028095;28;20500;-77
2022/02/27 08:51:05;;;;;;;47.72;23.42;;;;;;;4.47;61.13;102131.53;5043165;28;20128;-81
2022/02/27 08:53:32;;;;;;;44.55;26.17;;;;;;;4.56;60.94;102125.28;5044415;28;20080;-75
2022/02/27 08:56:01;;;;;;;50.08;28.48;;;;;;;4.47;61.29;102128.94;5031338;28;20065;-80
2022/02/27 08:58:29;;;;;;;52.20;26.60;;;;;;;4.37;61.42;102135.19;5045163;28;20079;-79
2022/02/27 09:00:56;;;;;;;27.58;14.50;;;;;;;4.67;61.08;102128.56;5042520;28;20452;-76
2022/02/27 09:03:26;;;;;;;43.80;27.05;;;;;;;4.81;60.47;102130.97;5042963;28;20758;-78
2022/02/27 09:05:54;;;;;;;78.70;30.98;;;;;;;4.59;60.49;102130.44;5043424;28;20059;-76
2022/02/27 09:08:21;;;;;;;58.88;25.83;;;;;;;4.42;60.76;102127.28;5038130;28;20045;-76
2022/02/27 09:10:48;;;;;;;74.45;29.42;;;;;;;4.43;61.03;102131.59;5022788;28;20136;-75
2022/02/27 09:13:17;;;;;;;59.55;30.23;;;;;;;4.38;60.90;102129.94;5022486;28;20072;-77
2022/02/27 09:15:44;;;;;;;58.38;31.38;;;;;;;4.24;61.37;102123.22;5031840;28;20137;-77
2022/02/27 09:18:11;;;;;;;67.03;32.80;;;;;;;4.21;61.47;102135.47;5024784;28;20072;-76
2022/02/27 09:20:39;;;;;;;72.05;31.10;;;;;;;4.21;61.54;102126.72;5020384;28;20056;-75
2022/02/27 09:23:06;;;;;;;61.70;31.38;;;;;;;4.20;61.62;102127.63;5020280;28;20133;-75
2022/02/27 09:25:33;;;;;;;51.35;29.30;;;;;;;4.28;61.63;102130.97;5021208;28;20054;-75
2022/02/27 09:28:00;;;;;;;64.47;34.05;;;;;;;4.34;61.60;102130.88;5022266;28;20041;-75
2022/02/27 09:30:29;;;;;;;63.63;34.50;;;;;;;4.27;61.84;102136.22;5023664;28;20661;-74
2022/02/27 09:32:57;;;;;;;60.88;31.77;;;;;;;4.36;61.78;102134.34;5021464;28;20206;-77
2022/02/27 09:35:28;;;;;;;54.55;31.38;;;;;;;4.24;61.71;102142.38;5023128;28;20090;-78
2022/02/27 09:37:57;;;;;;;53.60;31.13;;;;;;;4.35;61.79;102135.22;5026145;28;20042;-75
2022/02/27 09:40:25;;;;;;;61.00;25.10;;;;;;;4.38;61.67;102135.16;5008740;28;20045;-75
2022/02/27 09:42:53;;;;;;;69.03;34.67;;;;;;;4.45;61.45;102137.66;5029525;28;20038;-74
2022/02/27 09:45:22;;;;;;;54.92;30.20;;;;;;;4.43;61.50;102134.22;5031783;28;20486;-76
2022/02/27 09:47:52;;;;;;;62.17;34.92;;;;;;;4.25;61.76;102133.66;5031823;28;20048;-77
2022/02/27 09:50:21;;;;;;;66.00;37.78;;;;;;;4.08;62.14;102133.91;5037674;28;20645;-75
2022/02/27 09:52:48;;;;;;;65.55;31.83;;;;;;;4.06;62.23;102125.22;5040687;28;20136;-75
2022/02/27 09:55:18;;;;;;;66.30;34.85;;;;;;;4.25;61.70;102128.44;5017875;28;20051;-81
2022/02/27 09:57:46;;;;;;;73.97;37.10;;;;;;;4.32;61.89;102119.59;5016665;28;20045;-76
2022/02/27 10:00:15;;;;;;;66.30;35.55;;;;;;;4.27;61.86;102121.41;5037610;28;20063;-76
2022/02/27 10:03:10;;;;;;;66.18;34.08;;;;;;;4.16;62.18;102118.09;5031110;28;20607;-76
2022/02/27 10:05:38;;;;;;;53.35;28.33;;;;;;;4.24;61.88;102116.22;5024411;28;20045;-78
2022/02/27 10:08:07;;;;;;;55.25;31.05;;;;;;;4.22;61.91;102112.78;5028331;28;20056;-76
2022/02/27 10:10:34;;;;;;;55.13;26.02;;;;;;;4.33;61.52;102115.22;5023950;28;20050;-72
2022/02/27 10:13:02;;;;;;;55.65;26.40;;;;;;;4.36;61.53;102116.03;5021655;28;20175;-73
2022/02/27 10:15:29;;;;;;;61.88;29.92;;;;;;;4.32;61.36;102109.13;5022939;28;20697;-75
2022/02/27 10:17:56;;;;;;;42.67;22.05;;;;;;;4.51;61.29;102106.19;5023560;28;20073;-78
2022/02/27 10:20:27;;;;;;;41.90;24.88;;;;;;;4.64;60.71;102112.91;5023883;28;20054;-76
2022/02/27 10:22:56;;;;;;;44.17;30.65;;;;;;;4.56;60.61;102112.22;5023985;28;20083;-74
2022/02/27 10:25:26;;;;;;;36.22;19.90;;;;;;;4.47;60.49;102109.75;5027532;28;20394;-76
2022/02/27 10:27:55;;;;;;;53.15;25.52;;;;;;;4.70;60.14;102104.97;5034915;28;20605;-79
2022/02/27 10:30:24;;;;;;;43.78;27.80;;;;;;;4.77;60.03;102110.94;5037820;28;20493;-77
2022/02/27 10:32:56;;;;;;;43.83;25.70;;;;;;;4.64;59.91;102099.84;5038112;28;20747;-76
2022/02/27 10:35:39;;;;;;;35.08;21.52;;;;;;;4.68;60.05;102100.63;5036399;28;20125;-76
2022/02/27 10:38:07;;;;;;;39.05;18.95;;;;;;;4.76;59.90;102098.75;5034484;28;20817;-76
2022/02/27 10:40:37;;;;;;;51.92;26.15;;;;;;;4.94;59.44;102094.94;5032885;28;20124;-79
2022/02/27 10:43:07;;;;;;;40.53;25.98;;;;;;;4.75;59.39;102090.06;5034657;28;20128;-76
2022/02/27 10:45:34;;;;;;;43.15;27.55;;;;;;;4.42;60.10;102098.50;5034614;28;20187;-77
2022/02/27 10:48:04;;;;;;;39.95;21.23;;;;;;;4.34;60.40;102091.66;5038809;28;20129;-77
2022/02/27 10:50:31;;;;;;;41.10;24.00;;;;;;;4.57;60.26;102091.25;5015177;28;20052;-77
2022/02/27 10:53:01;;;;;;;42.70;25.42;;;;;;;4.43;60.46;102097.59;5022779;28;20121;-76
2022/02/27 10:55:28;;;;;;;53.15;28.67;;;;;;;4.29;60.69;102093.47;5021357;28;20156;-75
2022/02/27 10:57:55;;;;;;;40.92;24.55;;;;;;;4.33;61.07;102091.66;5022621;28;20081;-78
2022/02/27 11:00:25;;;;;;;39.13;23.80;;;;;;;4.31;60.88;102093.44;5021298;28;20046;-70
2022/02/27 11:02:54;;;;;;;46.65;27.98;;;;;;;4.47;60.77;102091.44;5036316;28;21523;-77
2022/02/27 11:05:25;;;;;;;49.95;30.13;;;;;;;4.28;61.23;102091.72;5020852;28;20692;-74
2022/02/27 11:07:55;;;;;;;36.55;25.63;;;;;;;4.21;61.19;102095.34;4972227;28;20116;-76
2022/02/27 11:10:26;;;;;;;51.60;31.80;;;;;;;4.04;61.55;102100.00;5022213;28;20054;-75
2022/02/27 11:12:54;;;;;;;42.25;28.73;;;;;;;3.88;61.93;102101.97;5020839;28;20045;-75
2022/02/27 11:15:23;;;;;;;48.15;27.98;;;;;;;3.82;62.29;102093.34;5040360;28;20044;-77